sensor_id;sensor_type;location;lat;lon;timestamp;temperature;humidity
20291;DHT22;10304;51.074;13.754;2023-06-14T00:00:14;17.60;1.00
20291;DHT22;10304;51.074;13.754;2023-06-14T00:02:42;17.50;1.00
20291;DHT22;10304;51.074;13.754;2023-06-14T00:05:09;17.50;1.00
20291;DHT22;10304;51.074;13.754;2023-06-14T00:07:40;17.50;1.00
20291;DHT22;10304;51.074;13.754;2023-06-14T00:10:14;17.40;1.00
20291;DHT22;10304;51.074;13.754;2023-06-14T00:12:41;17.40;1.00
20291;DHT22;10304;51.074;13.754;2023-06-14T00:15:08;17.30;1.00
20291;DHT22;10304;51.074;13.754;2023-06-14T00:17:38;17.30;1.00
20291;DHT22;10304;51.074;13.754;2023-06-14T00:20:06;17.20;1.00
20291;DHT22;10304;51.074;13.754;2023-06-14T00:22:34;17.20;1.00
20291;DHT22;10304;51.074;13.754;2023-06-14T00:25:03;17.20;1.00
20291;DHT22;10304;51.074;13.754;2023-06-14T00:27:49;17.20;1.00
20291;DHT22;10304;51.074;13.754;2023-06-14T00:30:17;17.20;1.00
20291;DHT22;10304;51.074;13.754;2023-06-14T00:32:45;17.10;1.00
20291;DHT22;10304;51.074;13.754;2023-06-14T00:35:13;17.10;1.00
20291;DHT22;10304;51.074;13.754;2023-06-14T00:37:40;17.10;1.00
20291;DHT22;10304;51.074;13.754;2023-06-14T00:40:07;17.00;1.00
20291;DHT22;10304;51.074;13.754;2023-06-14T00:42:34;17.00;1.00
20291;DHT22;10304;51.074;13.754;2023-06-14T00:45:02;16.90;1.00
20291;DHT22;10304;51.074;13.754;2023-06-14T00:47:29;16.90;1.00
20291;DHT22;10304;51.074;13.754;2023-06-14T00:49:56;16.90;1.00
20291;DHT22;10304;51.074;13.754;2023-06-14T00:52:24;16.90;1.00
20291;DHT22;10304;51.074;13.754;2023-06-14T00:54:52;16.80;1.00
20291;DHT22;10304;51.074;13.754;2023-06-14T00:57:20;16.80;1.00
20291;DHT22;10304;51.074;13.754;2023-06-14T00:59:49;16.80;1.00
20291;DHT22;10304;51.074;13.754;2023-06-14T01:02:17;16.70;1.00
20291;DHT22;10304;51.074;13.754;2023-06-14T01:04:49;16.60;1.00
20291;DHT22;10304;51.074;13.754;2023-06-14T01:07:36;16.60;1.00
20291;DHT22;10304;51.074;13.754;2023-06-14T01:13:02;16.40;1.00
20291;DHT22;10304;51.074;13.754;2023-06-14T01:15:32;16.40;1.00
20291;DHT22;10304;51.074;13.754;2023-06-14T01:17:59;16.30;1.00
20291;DHT22;10304;51.074;13.754;2023-06-14T01:20:32;16.30;1.00
20291;DHT22;10304;51.074;13.754;2023-06-14T01:22:59;16.30;1.00
20291;DHT22;10304;51.074;13.754;2023-06-14T01:25:26;16.20;1.00
20291;DHT22;10304;51.074;13.754;2023-06-14T01:28:02;16.10;7.40
20291;DHT22;10304;51.074;13.754;2023-06-14T01:30:30;16.10;34.50
20291;DHT22;10304;51.074;13.754;2023-06-14T01:33:00;16.10;42.40
20291;DHT22;10304;51.074;13.754;2023-06-14T01:35:27;16.10;46.30
20291;DHT22;10304;51.074;13.754;2023-06-14T01:37:54;16.00;77.10
20291;DHT22;10304;51.074;13.754;2023-06-14T01:40:21;16.00;99.90
20291;DHT22;10304;51.074;13.754;2023-06-14T01:42:50;15.90;99.90
20291;DHT22;10304;51.074;13.754;2023-06-14T01:45:18;15.90;99.90
20291;DHT22;10304;51.074;13.754;2023-06-14T01:47:47;15.80;99.90
20291;DHT22;10304;51.074;13.754;2023-06-14T01:50:14;15.80;99.90
20291;DHT22;10304;51.074;13.754;2023-06-14T01:52:41;15.80;99.90
20291;DHT22;10304;51.074;13.754;2023-06-14T01:55:08;15.80;99.90
20291;DHT22;10304;51.074;13.754;2023-06-14T01:57:35;15.80;99.90
20291;DHT22;10304;51.074;13.754;2023-06-14T02:00:04;15.70;99.90
20291;DHT22;10304;51.074;13.754;2023-06-14T02:02:31;15.80;99.90
20291;DHT22;10304;51.074;13.754;2023-06-14T02:04:58;15.70;99.90
20291;DHT22;10304;51.074;13.754;2023-06-14T02:07:25;15.70;99.90
20291;DHT22;10304;51.074;13.754;2023-06-14T02:09:52;15.60;99.90
20291;DHT22;10304;51.074;13.754;2023-06-14T02:12:18;15.70;99.90
20291;DHT22;10304;51.074;13.754;2023-06-14T02:14:45;15.60;99.90
20291;DHT22;10304;51.074;13.754;2023-06-14T02:17:12;15.60;99.90
20291;DHT22;10304;51.074;13.754;2023-06-14T02:19:39;15.50;99.90
20291;DHT22;10304;51.074;13.754;2023-06-14T02:22:06;15.40;99.90
20291;DHT22;10304;51.074;13.754;2023-06-14T02:24:33;15.40;99.90
20291;DHT22;10304;51.074;13.754;2023-06-14T02:27:01;15.40;99.90
20291;DHT22;10304;51.074;13.754;2023-06-14T02:29:28;15.40;99.90
20291;DHT22;10304;51.074;13.754;2023-06-14T02:31:54;15.30;99.90
20291;DHT22;10304;51.074;13.754;2023-06-14T02:34:21;15.20;99.90
20291;DHT22;10304;51.074;13.754;2023-06-14T02:36:48;15.20;99.90
20291;DHT22;10304;51.074;13.754;2023-06-14T02:39:16;15.20;99.90
20291;DHT22;10304;51.074;13.754;2023-06-14T02:41:44;15.20;99.90
20291;DHT22;10304;51.074;13.754;2023-06-14T02:44:12;15.10;99.90
20291;DHT22;10304;51.074;13.754;2023-06-14T02:46:39;15.10;99.90
20291;DHT22;10304;51.074;13.754;2023-06-14T02:49:06;15.00;1.00
20291;DHT22;10304;51.074;13.754;2023-06-14T02:51:33;15.00;1.00
20291;DHT22;10304;51.074;13.754;2023-06-14T02:54:00;15.00;1.00
20291;DHT22;10304;51.074;13.754;2023-06-14T02:56:27;15.00;1.00
20291;DHT22;10304;51.074;13.754;2023-06-14T02:58:54;15.00;1.00
20291;DHT22;10304;51.074;13.754;2023-06-14T03:01:21;15.00;1.00
20291;DHT22;10304;51.074;13.754;2023-06-14T03:03:48;14.90;1.00
20291;DHT22;10304;51.074;13.754;2023-06-14T03:06:15;14.90;1.00
20291;DHT22;10304;51.074;13.754;2023-06-14T03:08:43;14.90;1.00
20291;DHT22;10304;51.074;13.754;2023-06-14T03:11:10;14.90;1.00
20291;DHT22;10304;51.074;13.754;2023-06-14T03:13:37;14.90;1.00
20291;DHT22;10304;51.074;13.754;2023-06-14T03:16:05;14.80;1.00
20291;DHT22;10304;51.074;13.754;2023-06-14T03:18:33;14.80;1.00
20291;DHT22;10304;51.074;13.754;2023-06-14T03:21:02;14.70;1.00
20291;DHT22;10304;51.074;13.754;2023-06-14T03:23:29;14.60;1.00
20291;DHT22;10304;51.074;13.754;2023-06-14T03:25:56;14.70;1.00
20291;DHT22;10304;51.074;13.754;2023-06-14T03:28:23;14.70;1.00
20291;DHT22;10304;51.074;13.754;2023-06-14T03:30:50;14.70;1.00
20291;DHT22;10304;51.074;13.754;2023-06-14T03:33:18;14.60;1.00
20291;DHT22;10304;51.074;13.754;2023-06-14T03:35:45;14.60;1.00
20291;DHT22;10304;51.074;13.754;2023-06-14T03:38:13;14.60;1.00
20291;DHT22;10304;51.074;13.754;2023-06-14T03:40:39;14.50;1.00
20291;DHT22;10304;51.074;13.754;2023-06-14T03:43:06;14.50;1.00
20291;DHT22;10304;51.074;13.754;2023-06-14T03:45:33;14.50;1.00
20291;DHT22;10304;51.074;13.754;2023-06-14T03:48:00;14.50;1.00
20291;DHT22;10304;51.074;13.754;2023-06-14T03:50:27;14.50;1.00
20291;DHT22;10304;51.074;13.754;2023-06-14T03:52:54;14.50;1.00
20291;DHT22;10304;51.074;13.754;2023-06-14T03:55:21;14.50;1.00
20291;DHT22;10304;51.074;13.754;2023-06-14T03:58:08;14.50;1.00
20291;DHT22;10304;51.074;13.754;2023-06-14T04:00:35;14.60;1.00
20291;DHT22;10304;51.074;13.754;2023-06-14T04:03:02;14.60;1.00
20291;DHT22;10304;51.074;13.754;2023-06-14T04:05:31;14.60;1.00
20291;DHT22;10304;51.074;13.754;2023-06-14T04:07:58;14.60;1.00
20291;DHT22;10304;51.074;13.754;2023-06-14T04:10:25;14.70;33.00
20291;DHT22;10304;51.074;13.754;2023-06-14T04:12:52;14.70;57.40
20291;DHT22;10304;51.074;13.754;2023-06-14T04:15:19;14.70;50.20
20291;DHT22;10304;51.074;13.754;2023-06-14T04:17:48;14.70;50.90
20291;DHT22;10304;51.074;13.754;2023-06-14T04:20:15;14.70;27.60
20291;DHT22;10304;51.074;13.754;2023-06-14T04:22:42;14.70;99.90
20291;DHT22;10304;51.074;13.754;2023-06-14T04:25:10;14.80;99.90
20291;DHT22;10304;51.074;13.754;2023-06-14T04:27:38;14.80;99.90
20291;DHT22;10304;51.074;13.754;2023-06-14T04:30:07;14.90;99.90
20291;DHT22;10304;51.074;13.754;2023-06-14T04:32:34;14.90;99.90
20291;DHT22;10304;51.074;13.754;2023-06-14T04:35:07;14.90;99.90
20291;DHT22;10304;51.074;13.754;2023-06-14T04:37:34;15.00;99.90
20291;DHT22;10304;51.074;13.754;2023-06-14T04:40:01;15.00;99.90
20291;DHT22;10304;51.074;13.754;2023-06-14T04:42:31;15.10;99.90
20291;DHT22;10304;51.074;13.754;2023-06-14T04:44:59;15.10;99.90
20291;DHT22;10304;51.074;13.754;2023-06-14T04:47:25;15.20;60.50
20291;DHT22;10304;51.074;13.754;2023-06-14T04:49:59;15.20;99.90
20291;DHT22;10304;51.074;13.754;2023-06-14T04:52:27;15.30;83.80
20291;DHT22;10304;51.074;13.754;2023-06-14T04:54:56;15.30;1.00
20291;DHT22;10304;51.074;13.754;2023-06-14T04:57:23;15.30;1.00
20291;DHT22;10304;51.074;13.754;2023-06-14T04:59:52;15.30;2.20
20291;DHT22;10304;51.074;13.754;2023-06-14T05:02:22;15.30;6.20
20291;DHT22;10304;51.074;13.754;2023-06-14T05:04:50;15.40;1.00
20291;DHT22;10304;51.074;13.754;2023-06-14T05:07:17;15.50;1.00
20291;DHT22;10304;51.074;13.754;2023-06-14T05:09:44;15.50;1.00
20291;DHT22;10304;51.074;13.754;2023-06-14T05:12:11;15.60;1.00
20291;DHT22;10304;51.074;13.754;2023-06-14T05:14:38;15.70;1.00
20291;DHT22;10304;51.074;13.754;2023-06-14T05:17:06;15.80;1.00
20291;DHT22;10304;51.074;13.754;2023-06-14T05:19:33;15.80;1.00
20291;DHT22;10304;51.074;13.754;2023-06-14T05:22:00;15.80;1.00
20291;DHT22;10304;51.074;13.754;2023-06-14T05:24:27;15.90;1.00
20291;DHT22;10304;51.074;13.754;2023-06-14T05:26:55;16.00;1.00
20291;DHT22;10304;51.074;13.754;2023-06-14T05:29:22;16.00;1.00
20291;DHT22;10304;51.074;13.754;2023-06-14T05:31:50;16.10;1.00
20291;DHT22;10304;51.074;13.754;2023-06-14T05:34:17;16.20;1.00
20291;DHT22;10304;51.074;13.754;2023-06-14T05:36:44;16.20;1.00
20291;DHT22;10304;51.074;13.754;2023-06-14T05:39:11;16.30;1.00
20291;DHT22;10304;51.074;13.754;2023-06-14T05:41:38;16.30;1.00
20291;DHT22;10304;51.074;13.754;2023-06-14T05:44:05;16.40;1.00
20291;DHT22;10304;51.074;13.754;2023-06-14T05:46:31;16.40;1.00
20291;DHT22;10304;51.074;13.754;2023-06-14T05:48:58;16.50;1.00
20291;DHT22;10304;51.074;13.754;2023-06-14T05:51:25;16.60;1.00
20291;DHT22;10304;51.074;13.754;2023-06-14T05:53:53;16.80;1.00
20291;DHT22;10304;51.074;13.754;2023-06-14T05:56:21;16.90;1.00
20291;DHT22;10304;51.074;13.754;2023-06-14T05:58:47;17.00;1.00
20291;DHT22;10304;51.074;13.754;2023-06-14T06:01:15;17.10;1.00
20291;DHT22;10304;51.074;13.754;2023-06-14T06:03:42;17.20;1.00
20291;DHT22;10304;51.074;13.754;2023-06-14T06:06:13;17.30;1.00
20291;DHT22;10304;51.074;13.754;2023-06-14T06:08:40;17.40;99.90
20291;DHT22;10304;51.074;13.754;2023-06-14T06:11:07;17.50;99.90
20291;DHT22;10304;51.074;13.754;2023-06-14T06:13:34;17.50;99.90
20291;DHT22;10304;51.074;13.754;2023-06-14T06:16:03;17.60;99.90
20291;DHT22;10304;51.074;13.754;2023-06-14T06:18:30;17.60;99.90
20291;DHT22;10304;51.074;13.754;2023-06-14T06:20:57;17.70;99.90
20291;DHT22;10304;51.074;13.754;2023-06-14T06:23:24;17.80;99.90
20291;DHT22;10304;51.074;13.754;2023-06-14T06:25:51;17.90;99.90
20291;DHT22;10304;51.074;13.754;2023-06-14T06:28:18;18.00;99.90
20291;DHT22;10304;51.074;13.754;2023-06-14T06:30:45;18.00;99.90
20291;DHT22;10304;51.074;13.754;2023-06-14T06:33:13;18.10;99.90
20291;DHT22;10304;51.074;13.754;2023-06-14T06:35:41;18.10;99.90
20291;DHT22;10304;51.074;13.754;2023-06-14T06:38:08;18.20;99.90
20291;DHT22;10304;51.074;13.754;2023-06-14T06:40:36;18.20;99.90
20291;DHT22;10304;51.074;13.754;2023-06-14T06:43:03;18.20;99.90
20291;DHT22;10304;51.074;13.754;2023-06-14T06:45:30;18.30;99.90
20291;DHT22;10304;51.074;13.754;2023-06-14T06:48:00;18.50;99.90
20291;DHT22;10304;51.074;13.754;2023-06-14T06:50:29;18.50;99.90
20291;DHT22;10304;51.074;13.754;2023-06-14T06:52:58;18.60;99.90
20291;DHT22;10304;51.074;13.754;2023-06-14T06:55:28;18.70;99.90
20291;DHT22;10304;51.074;13.754;2023-06-14T06:57:55;18.70;67.50
20291;DHT22;10304;51.074;13.754;2023-06-14T07:00:22;18.80;49.30
20291;DHT22;10304;51.074;13.754;2023-06-14T07:02:52;18.80;19.00
20291;DHT22;10304;51.074;13.754;2023-06-14T07:05:22;18.90;47.70
20291;DHT22;10304;51.074;13.754;2023-06-14T07:07:49;18.90;29.30
20291;DHT22;10304;51.074;13.754;2023-06-14T07:10:16;19.00;2.90
20291;DHT22;10304;51.074;13.754;2023-06-14T07:12:43;19.00;8.00
20291;DHT22;10304;51.074;13.754;2023-06-14T07:15:11;19.10;3.90
20291;DHT22;10304;51.074;13.754;2023-06-14T07:17:38;19.20;12.40
20291;DHT22;10304;51.074;13.754;2023-06-14T07:20:05;19.30;1.00
20291;DHT22;10304;51.074;13.754;2023-06-14T07:22:39;19.40;1.00
20291;DHT22;10304;51.074;13.754;2023-06-14T07:25:09;19.50;1.00
20291;DHT22;10304;51.074;13.754;2023-06-14T07:27:36;19.60;1.00
20291;DHT22;10304;51.074;13.754;2023-06-14T07:30:03;19.70;1.00
20291;DHT22;10304;51.074;13.754;2023-06-14T07:32:30;19.80;1.00
20291;DHT22;10304;51.074;13.754;2023-06-14T07:34:57;19.90;1.00
20291;DHT22;10304;51.074;13.754;2023-06-14T07:37:24;20.10;1.00
20291;DHT22;10304;51.074;13.754;2023-06-14T07:39:51;20.20;1.00
20291;DHT22;10304;51.074;13.754;2023-06-14T07:42:18;20.30;1.00
20291;DHT22;10304;51.074;13.754;2023-06-14T07:44:45;20.40;1.00
20291;DHT22;10304;51.074;13.754;2023-06-14T07:47:11;20.50;1.00
20291;DHT22;10304;51.074;13.754;2023-06-14T07:49:38;20.60;1.00
20291;DHT22;10304;51.074;13.754;2023-06-14T07:52:06;20.70;1.00
20291;DHT22;10304;51.074;13.754;2023-06-14T07:54:33;20.90;1.00
20291;DHT22;10304;51.074;13.754;2023-06-14T07:57:00;21.00;1.00
20291;DHT22;10304;51.074;13.754;2023-06-14T07:59:27;21.00;1.00
20291;DHT22;10304;51.074;13.754;2023-06-14T08:01:54;21.20;1.00
20291;DHT22;10304;51.074;13.754;2023-06-14T08:04:21;21.30;1.00
20291;DHT22;10304;51.074;13.754;2023-06-14T08:06:48;21.40;1.00
20291;DHT22;10304;51.074;13.754;2023-06-14T08:09:19;21.50;1.00
20291;DHT22;10304;51.074;13.754;2023-06-14T08:11:46;21.60;1.00
20291;DHT22;10304;51.074;13.754;2023-06-14T08:14:12;21.80;1.00
20291;DHT22;10304;51.074;13.754;2023-06-14T08:16:39;21.80;1.00
20291;DHT22;10304;51.074;13.754;2023-06-14T08:19:06;22.00;1.00
20291;DHT22;10304;51.074;13.754;2023-06-14T08:21:35;22.10;1.00
20291;DHT22;10304;51.074;13.754;2023-06-14T08:24:03;22.20;1.00
20291;DHT22;10304;51.074;13.754;2023-06-14T08:26:30;22.30;1.00
20291;DHT22;10304;51.074;13.754;2023-06-14T08:28:58;22.40;1.00
20291;DHT22;10304;51.074;13.754;2023-06-14T08:31:25;22.40;1.00
20291;DHT22;10304;51.074;13.754;2023-06-14T08:33:52;22.50;1.00
20291;DHT22;10304;51.074;13.754;2023-06-14T08:36:21;22.60;1.00
20291;DHT22;10304;51.074;13.754;2023-06-14T08:38:50;22.70;1.00
20291;DHT22;10304;51.074;13.754;2023-06-14T08:41:21;22.70;1.00
20291;DHT22;10304;51.074;13.754;2023-06-14T08:43:58;22.90;1.00
20291;DHT22;10304;51.074;13.754;2023-06-14T08:46:50;23.00;1.00
20291;DHT22;10304;51.074;13.754;2023-06-14T08:49:20;23.00;1.00
20291;DHT22;10304;51.074;13.754;2023-06-14T08:51:51;23.10;1.00
20291;DHT22;10304;51.074;13.754;2023-06-14T08:54:19;23.10;1.00
20291;DHT22;10304;51.074;13.754;2023-06-14T08:56:47;23.20;1.00
20291;DHT22;10304;51.074;13.754;2023-06-14T08:59:15;23.30;1.00
20291;DHT22;10304;51.074;13.754;2023-06-14T09:01:42;23.40;1.00
20291;DHT22;10304;51.074;13.754;2023-06-14T09:04:29;23.60;1.00
20291;DHT22;10304;51.074;13.754;2023-06-14T09:06:56;23.70;1.00
20291;DHT22;10304;51.074;13.754;2023-06-14T09:09:34;23.80;1.00
20291;DHT22;10304;51.074;13.754;2023-06-14T09:12:47;23.80;1.00
20291;DHT22;10304;51.074;13.754;2023-06-14T09:15:29;23.90;1.00
20291;DHT22;10304;51.074;13.754;2023-06-14T09:17:57;24.00;1.00
20291;DHT22;10304;51.074;13.754;2023-06-14T09:20:24;24.10;1.00
20291;DHT22;10304;51.074;13.754;2023-06-14T09:22:53;24.20;1.00
20291;DHT22;10304;51.074;13.754;2023-06-14T09:25:23;24.30;1.00
20291;DHT22;10304;51.074;13.754;2023-06-14T09:28:09;24.40;1.00
20291;DHT22;10304;51.074;13.754;2023-06-14T09:30:38;24.50;1.00
20291;DHT22;10304;51.074;13.754;2023-06-14T09:33:05;24.60;1.00
20291;DHT22;10304;51.074;13.754;2023-06-14T09:35:32;24.80;1.00
20291;DHT22;10304;51.074;13.754;2023-06-14T09:38:00;25.00;1.00
20291;DHT22;10304;51.074;13.754;2023-06-14T09:40:34;25.20;1.00
20291;DHT22;10304;51.074;13.754;2023-06-14T09:43:05;25.30;1.00
20291;DHT22;10304;51.074;13.754;2023-06-14T09:45:33;25.40;1.00
20291;DHT22;10304;51.074;13.754;2023-06-14T09:48:01;25.50;1.00
20291;DHT22;10304;51.074;13.754;2023-06-14T09:50:33;25.60;1.00
20291;DHT22;10304;51.074;13.754;2023-06-14T09:53:06;25.70;1.00
20291;DHT22;10304;51.074;13.754;2023-06-14T09:55:36;25.90;1.00
20291;DHT22;10304;51.074;13.754;2023-06-14T09:58:05;25.90;1.00
20291;DHT22;10304;51.074;13.754;2023-06-14T10:00:34;26.00;1.00
20291;DHT22;10304;51.074;13.754;2023-06-14T10:03:25;26.00;1.00
20291;DHT22;10304;51.074;13.754;2023-06-14T10:05:52;26.10;1.00
20291;DHT22;10304;51.074;13.754;2023-06-14T10:08:23;26.20;1.00
20291;DHT22;10304;51.074;13.754;2023-06-14T10:10:55;26.30;1.00
20291;DHT22;10304;51.074;13.754;2023-06-14T10:13:22;26.40;1.00
20291;DHT22;10304;51.074;13.754;2023-06-14T10:16:05;26.60;1.00
20291;DHT22;10304;51.074;13.754;2023-06-14T10:18:53;26.90;1.00
20291;DHT22;10304;51.074;13.754;2023-06-14T10:21:33;27.00;1.00
20291;DHT22;10304;51.074;13.754;2023-06-14T10:24:07;27.20;1.00
20291;DHT22;10304;51.074;13.754;2023-06-14T10:26:35;27.40;1.00
20291;DHT22;10304;51.074;13.754;2023-06-14T10:29:08;27.60;1.00
20291;DHT22;10304;51.074;13.754;2023-06-14T10:34:12;28.00;1.00
20291;DHT22;10304;51.074;13.754;2023-06-14T10:39:26;28.30;1.00
20291;DHT22;10304;51.074;13.754;2023-06-14T10:41:55;28.40;1.00
20291;DHT22;10304;51.074;13.754;2023-06-14T10:46:52;28.50;1.00
20291;DHT22;10304;51.074;13.754;2023-06-14T10:49:19;28.40;1.00
20291;DHT22;10304;51.074;13.754;2023-06-14T10:51:50;28.40;1.00
20291;DHT22;10304;51.074;13.754;2023-06-14T10:54:22;28.60;1.00
20291;DHT22;10304;51.074;13.754;2023-06-14T10:56:52;28.80;1.00
20291;DHT22;10304;51.074;13.754;2023-06-14T10:59:19;28.80;1.00
20291;DHT22;10304;51.074;13.754;2023-06-14T11:02:04;28.70;1.00
20291;DHT22;10304;51.074;13.754;2023-06-14T11:04:49;28.60;1.00
20291;DHT22;10304;51.074;13.754;2023-06-14T11:12:47;28.50;1.00
20291;DHT22;10304;51.074;13.754;2023-06-14T11:15:14;28.40;1.00
20291;DHT22;10304;51.074;13.754;2023-06-14T11:17:51;28.30;1.00
20291;DHT22;10304;51.074;13.754;2023-06-14T11:20:20;28.30;1.00
20291;DHT22;10304;51.074;13.754;2023-06-14T11:22:49;28.10;1.00
20291;DHT22;10304;51.074;13.754;2023-06-14T11:25:15;28.00;1.00
20291;DHT22;10304;51.074;13.754;2023-06-14T11:27:43;27.90;1.00
20291;DHT22;10304;51.074;13.754;2023-06-14T11:30:11;27.80;1.00
20291;DHT22;10304;51.074;13.754;2023-06-14T11:32:38;27.70;1.00
20291;DHT22;10304;51.074;13.754;2023-06-14T11:35:06;27.60;1.00
20291;DHT22;10304;51.074;13.754;2023-06-14T11:37:33;27.40;1.00
20291;DHT22;10304;51.074;13.754;2023-06-14T11:40:01;27.30;1.00
20291;DHT22;10304;51.074;13.754;2023-06-14T11:42:27;27.20;1.00
20291;DHT22;10304;51.074;13.754;2023-06-14T11:44:55;27.00;1.00
20291;DHT22;10304;51.074;13.754;2023-06-14T11:47:36;26.80;1.00
20291;DHT22;10304;51.074;13.754;2023-06-14T11:50:05;26.60;1.00
20291;DHT22;10304;51.074;13.754;2023-06-14T11:52:32;26.50;1.00
20291;DHT22;10304;51.074;13.754;2023-06-14T11:54:59;26.50;1.00
20291;DHT22;10304;51.074;13.754;2023-06-14T11:57:26;26.40;1.00
20291;DHT22;10304;51.074;13.754;2023-06-14T11:59:55;26.30;1.00
20291;DHT22;10304;51.074;13.754;2023-06-14T12:02:22;26.30;1.00
20291;DHT22;10304;51.074;13.754;2023-06-14T12:04:50;26.20;1.00
20291;DHT22;10304;51.074;13.754;2023-06-14T12:07:18;26.20;1.00
20291;DHT22;10304;51.074;13.754;2023-06-14T12:12:25;26.20;1.00
20291;DHT22;10304;51.074;13.754;2023-06-14T12:14:54;26.20;1.00
20291;DHT22;10304;51.074;13.754;2023-06-14T12:17:23;26.20;1.00
20291;DHT22;10304;51.074;13.754;2023-06-14T12:19:50;26.10;1.00
20291;DHT22;10304;51.074;13.754;2023-06-14T12:22:17;26.20;1.00
20291;DHT22;10304;51.074;13.754;2023-06-14T12:24:45;26.10;1.00
20291;DHT22;10304;51.074;13.754;2023-06-14T12:27:12;26.00;1.00
20291;DHT22;10304;51.074;13.754;2023-06-14T12:29:43;26.10;1.00
20291;DHT22;10304;51.074;13.754;2023-06-14T12:32:10;26.20;1.00
20291;DHT22;10304;51.074;13.754;2023-06-14T12:34:37;26.50;1.00
20291;DHT22;10304;51.074;13.754;2023-06-14T12:37:04;26.90;1.00
20291;DHT22;10304;51.074;13.754;2023-06-14T12:39:31;27.20;1.00
20291;DHT22;10304;51.074;13.754;2023-06-14T12:41:58;27.50;1.00
20291;DHT22;10304;51.074;13.754;2023-06-14T12:44:24;27.90;1.00
20291;DHT22;10304;51.074;13.754;2023-06-14T12:46:51;28.20;1.00
20291;DHT22;10304;51.074;13.754;2023-06-14T12:49:21;28.40;1.00
20291;DHT22;10304;51.074;13.754;2023-06-14T12:51:48;28.60;1.00
20291;DHT22;10304;51.074;13.754;2023-06-14T12:54:15;28.70;1.00
20291;DHT22;10304;51.074;13.754;2023-06-14T12:56:53;28.60;1.00
20291;DHT22;10304;51.074;13.754;2023-06-14T12:59:21;28.50;1.00
20291;DHT22;10304;51.074;13.754;2023-06-14T13:01:48;28.20;1.00
20291;DHT22;10304;51.074;13.754;2023-06-14T13:04:17;28.00;1.00
20291;DHT22;10304;51.074;13.754;2023-06-14T13:06:44;28.10;1.00
20291;DHT22;10304;51.074;13.754;2023-06-14T13:09:11;28.20;1.00
20291;DHT22;10304;51.074;13.754;2023-06-14T13:11:38;28.50;1.00
20291;DHT22;10304;51.074;13.754;2023-06-14T13:14:05;29.00;1.00
20291;DHT22;10304;51.074;13.754;2023-06-14T13:16:50;29.20;1.00
20291;DHT22;10304;51.074;13.754;2023-06-14T13:19:17;29.50;1.00
20291;DHT22;10304;51.074;13.754;2023-06-14T13:21:44;29.50;1.00
20291;DHT22;10304;51.074;13.754;2023-06-14T13:24:10;29.40;1.00
20291;DHT22;10304;51.074;13.754;2023-06-14T13:26:37;29.30;1.00
20291;DHT22;10304;51.074;13.754;2023-06-14T13:29:04;29.20;1.00
20291;DHT22;10304;51.074;13.754;2023-06-14T13:31:31;29.00;1.00
20291;DHT22;10304;51.074;13.754;2023-06-14T13:33:57;29.00;1.00
20291;DHT22;10304;51.074;13.754;2023-06-14T13:36:24;29.20;1.00
20291;DHT22;10304;51.074;13.754;2023-06-14T13:38:51;29.60;1.00
20291;DHT22;10304;51.074;13.754;2023-06-14T13:41:19;30.10;1.00
20291;DHT22;10304;51.074;13.754;2023-06-14T13:43:46;30.40;1.00
20291;DHT22;10304;51.074;13.754;2023-06-14T13:46:12;30.80;1.00
20291;DHT22;10304;51.074;13.754;2023-06-14T13:48:39;31.10;1.00
20291;DHT22;10304;51.074;13.754;2023-06-14T13:51:06;31.40;1.00
20291;DHT22;10304;51.074;13.754;2023-06-14T13:53:33;31.40;1.00
20291;DHT22;10304;51.074;13.754;2023-06-14T13:56:00;31.40;1.00
20291;DHT22;10304;51.074;13.754;2023-06-14T13:58:27;31.30;1.00
20291;DHT22;10304;51.074;13.754;2023-06-14T14:00:54;31.00;1.00
20291;DHT22;10304;51.074;13.754;2023-06-14T14:03:21;30.80;1.00
20291;DHT22;10304;51.074;13.754;2023-06-14T14:05:47;30.50;1.00
20291;DHT22;10304;51.074;13.754;2023-06-14T14:08:14;30.30;1.00
20291;DHT22;10304;51.074;13.754;2023-06-14T14:10:41;30.00;1.00
20291;DHT22;10304;51.074;13.754;2023-06-14T14:13:08;29.90;1.00
20291;DHT22;10304;51.074;13.754;2023-06-14T14:15:35;30.00;1.00
20291;DHT22;10304;51.074;13.754;2023-06-14T14:18:02;30.20;1.00
20291;DHT22;10304;51.074;13.754;2023-06-14T14:20:30;30.40;1.00
20291;DHT22;10304;51.074;13.754;2023-06-14T14:22:57;30.50;1.00
20291;DHT22;10304;51.074;13.754;2023-06-14T14:25:24;30.50;1.00
20291;DHT22;10304;51.074;13.754;2023-06-14T14:27:51;30.40;1.00
20291;DHT22;10304;51.074;13.754;2023-06-14T14:30:17;30.30;1.00
20291;DHT22;10304;51.074;13.754;2023-06-14T14:32:46;30.20;1.00
20291;DHT22;10304;51.074;13.754;2023-06-14T14:35:15;30.20;1.00
20291;DHT22;10304;51.074;13.754;2023-06-14T14:37:41;30.10;1.00
20291;DHT22;10304;51.074;13.754;2023-06-14T14:40:08;29.90;1.00
20291;DHT22;10304;51.074;13.754;2023-06-14T14:42:36;29.90;1.00
20291;DHT22;10304;51.074;13.754;2023-06-14T14:45:04;30.00;1.00
20291;DHT22;10304;51.074;13.754;2023-06-14T14:47:31;30.20;1.00
20291;DHT22;10304;51.074;13.754;2023-06-14T14:49:58;30.40;1.00
20291;DHT22;10304;51.074;13.754;2023-06-14T14:52:24;30.30;1.00
20291;DHT22;10304;51.074;13.754;2023-06-14T14:54:53;30.30;1.00
20291;DHT22;10304;51.074;13.754;2023-06-14T14:57:21;30.20;1.00
20291;DHT22;10304;51.074;13.754;2023-06-14T14:59:48;30.10;1.00
20291;DHT22;10304;51.074;13.754;2023-06-14T15:02:14;30.00;1.00
20291;DHT22;10304;51.074;13.754;2023-06-14T15:04:41;29.90;1.00
20291;DHT22;10304;51.074;13.754;2023-06-14T15:07:08;30.10;1.00
20291;DHT22;10304;51.074;13.754;2023-06-14T15:09:36;30.40;1.00
20291;DHT22;10304;51.074;13.754;2023-06-14T15:12:03;30.70;1.00
20291;DHT22;10304;51.074;13.754;2023-06-14T15:14:30;31.10;1.00
20291;DHT22;10304;51.074;13.754;2023-06-14T15:16:56;31.50;1.00
20291;DHT22;10304;51.074;13.754;2023-06-14T15:19:24;31.90;1.00
20291;DHT22;10304;51.074;13.754;2023-06-14T15:21:51;32.10;1.00
20291;DHT22;10304;51.074;13.754;2023-06-14T15:24:18;31.90;1.00
20291;DHT22;10304;51.074;13.754;2023-06-14T15:27:03;31.70;1.00
20291;DHT22;10304;51.074;13.754;2023-06-14T15:29:30;31.40;1.00
20291;DHT22;10304;51.074;13.754;2023-06-14T15:31:57;31.20;1.00
20291;DHT22;10304;51.074;13.754;2023-06-14T15:34:24;30.90;1.00
20291;DHT22;10304;51.074;13.754;2023-06-14T15:36:51;30.70;1.00
20291;DHT22;10304;51.074;13.754;2023-06-14T15:39:18;30.60;1.00
20291;DHT22;10304;51.074;13.754;2023-06-14T15:41:44;30.50;1.00
20291;DHT22;10304;51.074;13.754;2023-06-14T15:44:11;30.40;1.00
20291;DHT22;10304;51.074;13.754;2023-06-14T15:46:38;30.30;1.00
20291;DHT22;10304;51.074;13.754;2023-06-14T15:49:09;30.10;1.00
20291;DHT22;10304;51.074;13.754;2023-06-14T15:51:37;29.90;1.00
20291;DHT22;10304;51.074;13.754;2023-06-14T15:54:03;29.90;1.00